sensor_id;sensor_type;location;lat;lon;timestamp;pressure;altitude;pressure_sealevel;temperature;humidity
72855;BME280;60991;51.278;22.550;2023-03-20T00:00:35;99094.75;;;10.29;50.52
72855;BME280;60991;51.278;22.550;2023-03-20T00:02:07;99091.31;;;10.29;50.41
72855;BME280;60991;51.278;22.550;2023-03-20T00:03:37;99088.09;;;10.27;50.49
72855;BME280;60991;51.278;22.550;2023-03-20T00:05:16;99091.22;;;10.24;50.72
72855;BME280;60991;51.278;22.550;2023-03-20T00:06:46;99090.66;;;10.22;50.61
72855;BME280;60991;51.278;22.550;2023-03-20T00:08:16;99087.19;;;10.21;50.47
72855;BME280;60991;51.278;22.550;2023-03-20T00:09:47;99080.31;;;10.20;50.58
72855;BME280;60991;51.278;22.550;2023-03-20T00:12:56;99082.97;;;10.20;50.59
72855;BME280;60991;51.278;22.550;2023-03-20T00:14:26;99090.56;;;10.17;51.11
72855;BME280;60991;51.278;22.550;2023-03-20T00:15:57;99094.41;;;9.92;51.41
72855;BME280;60991;51.278;22.550;2023-03-20T00:17:27;99091.47;;;9.60;52.27
72855;BME280;60991;51.278;22.550;2023-03-20T00:18:57;99091.38;;;9.55;52.25
72855;BME280;60991;51.278;22.550;2023-03-20T00:20:27;99090.25;;;9.51;52.56
72855;BME280;60991;51.278;22.550;2023-03-20T00:21:58;99083.38;;;9.67;52.52
72855;BME280;60991;51.278;22.550;2023-03-20T00:23:28;99083.88;;;9.81;51.94
72855;BME280;60991;51.278;22.550;2023-03-20T00:24:58;99084.75;;;9.86;51.74
72855;BME280;60991;51.278;22.550;2023-03-20T00:26:35;99083.72;;;9.87;51.79
72855;BME280;60991;51.278;22.550;2023-03-20T00:28:43;99084.75;;;9.86;52.13
72855;BME280;60991;51.278;22.550;2023-03-20T00:30:26;99076.00;;;9.86;51.76
72855;BME280;60991;51.278;22.550;2023-03-20T00:31:58;99079.38;;;9.81;51.75
72855;BME280;60991;51.278;22.550;2023-03-20T00:33:28;99080.66;;;9.79;51.87
72855;BME280;60991;51.278;22.550;2023-03-20T00:34:58;99078.81;;;9.79;51.89
72855;BME280;60991;51.278;22.550;2023-03-20T00:36:29;99074.81;;;9.77;51.82
72855;BME280;60991;51.278;22.550;2023-03-20T00:37:59;99079.53;;;9.75;51.93
72855;BME280;60991;51.278;22.550;2023-03-20T00:39:29;99072.16;;;9.77;51.94
72855;BME280;60991;51.278;22.550;2023-03-20T00:41:00;99071.59;;;9.75;52.00
72855;BME280;60991;51.278;22.550;2023-03-20T00:42:30;99070.31;;;9.77;51.86
72855;BME280;60991;51.278;22.550;2023-03-20T00:45:51;99077.53;;;9.82;52.14
72855;BME280;60991;51.278;22.550;2023-03-20T00:47:22;99075.38;;;9.79;52.42
72855;BME280;60991;51.278;22.550;2023-03-20T00:48:53;99074.56;;;9.78;51.80
72855;BME280;60991;51.278;22.550;2023-03-20T00:50:25;99072.94;;;9.77;51.92
72855;BME280;60991;51.278;22.550;2023-03-20T00:51:56;99076.88;;;9.75;52.14
72855;BME280;60991;51.278;22.550;2023-03-20T00:53:26;99075.28;;;9.73;52.62
72855;BME280;60991;51.278;22.550;2023-03-20T00:54:57;99075.75;;;9.70;52.00
72855;BME280;60991;51.278;22.550;2023-03-20T00:56:31;99071.50;;;9.69;52.22
72855;BME280;60991;51.278;22.550;2023-03-20T00:58:02;99073.34;;;9.69;51.83
72855;BME280;60991;51.278;22.550;2023-03-20T00:59:37;99073.34;;;9.69;52.17
72855;BME280;60991;51.278;22.550;2023-03-20T01:01:08;99070.13;;;9.67;51.68
72855;BME280;60991;51.278;22.550;2023-03-20T01:02:39;99063.72;;;9.63;51.84
72855;BME280;60991;51.278;22.550;2023-03-20T01:04:13;99072.38;;;9.58;52.41
72855;BME280;60991;51.278;22.550;2023-03-20T01:05:45;99067.31;;;9.57;52.64
72855;BME280;60991;51.278;22.550;2023-03-20T01:07:15;99071.22;;;9.54;52.47
72855;BME280;60991;51.278;22.550;2023-03-20T01:08:45;99066.72;;;9.55;52.45
72855;BME280;60991;51.278;22.550;2023-03-20T01:10:16;99068.56;;;9.54;52.56
72855;BME280;60991;51.278;22.550;2023-03-20T01:11:46;99074.69;;;9.55;52.72
72855;BME280;60991;51.278;22.550;2023-03-20T01:14:54;99069.16;;;9.56;52.26
72855;BME280;60991;51.278;22.550;2023-03-20T01:16:26;99069.72;;;9.58;52.03
72855;BME280;60991;51.278;22.550;2023-03-20T01:17:56;99064.50;;;9.63;52.09
72855;BME280;60991;51.278;22.550;2023-03-20T01:19:26;99075.13;;;9.63;51.84
72855;BME280;60991;51.278;22.550;2023-03-20T01:20:56;99075.66;;;9.65;52.18
72855;BME280;60991;51.278;22.550;2023-03-20T01:22:27;99074.84;;;9.65;51.65
72855;BME280;60991;51.278;22.550;2023-03-20T01:23:57;99072.19;;;9.65;51.75
72855;BME280;60991;51.278;22.550;2023-03-20T01:25:27;99067.97;;;9.64;51.92
72855;BME280;60991;51.278;22.550;2023-03-20T01:26:57;99070.28;;;9.60;52.39
72855;BME280;60991;51.278;22.550;2023-03-20T01:28:29;99071.56;;;9.58;52.07
72855;BME280;60991;51.278;22.550;2023-03-20T01:30:00;99069.16;;;9.56;52.22
72855;BME280;60991;51.278;22.550;2023-03-20T01:31:30;99077.34;;;9.55;51.94
72855;BME280;60991;51.278;22.550;2023-03-20T01:33:05;99074.91;;;9.53;52.28
72855;BME280;60991;51.278;22.550;2023-03-20T01:34:41;99074.13;;;9.53;52.12
72855;BME280;60991;51.278;22.550;2023-03-20T01:36:13;99065.81;;;9.49;52.06
72855;BME280;60991;51.278;22.550;2023-03-20T01:37:44;99071.38;;;9.48;52.38
72855;BME280;60991;51.278;22.550;2023-03-20T01:39:15;99073.72;;;9.44;52.30
72855;BME280;60991;51.278;22.550;2023-03-20T01:42:28;99069.13;;;9.40;52.00
72855;BME280;60991;51.278;22.550;2023-03-20T01:44:00;99069.25;;;9.33;52.78
72855;BME280;60991;51.278;22.550;2023-03-20T01:45:36;99065.22;;;9.30;52.83
72855;BME280;60991;51.278;22.550;2023-03-20T01:47:19;99066.75;;;9.26;52.96
72855;BME280;60991;51.278;22.550;2023-03-20T01:50:21;99067.00;;;9.25;52.77
72855;BME280;60991;51.278;22.550;2023-03-20T01:51:53;99063.31;;;9.26;52.90
72855;BME280;60991;51.278;22.550;2023-03-20T01:53:25;99059.28;;;9.23;52.99
72855;BME280;60991;51.278;22.550;2023-03-20T01:54:56;99061.69;;;9.25;53.09
72855;BME280;60991;51.278;22.550;2023-03-20T01:56:29;99059.63;;;9.27;52.59
72855;BME280;60991;51.278;22.550;2023-03-20T01:58:06;99065.44;;;9.29;52.53
72855;BME280;60991;51.278;22.550;2023-03-20T01:59:45;99058.06;;;9.31;52.70
72855;BME280;60991;51.278;22.550;2023-03-20T02:01:16;99055.75;;;9.34;52.31
72855;BME280;60991;51.278;22.550;2023-03-20T02:02:47;99061.06;;;9.34;52.28
72855;BME280;60991;51.278;22.550;2023-03-20T02:04:19;99059.44;;;9.33;52.14
72855;BME280;60991;51.278;22.550;2023-03-20T02:05:54;99064.53;;;9.35;52.54
72855;BME280;60991;51.278;22.550;2023-03-20T02:07:26;99059.00;;;9.36;52.25
72855;BME280;60991;51.278;22.550;2023-03-20T02:08:56;99061.88;;;9.35;52.18
72855;BME280;60991;51.278;22.550;2023-03-20T02:10:26;99057.63;;;9.34;52.30
72855;BME280;60991;51.278;22.550;2023-03-20T02:11:58;99055.44;;;9.31;52.33
72855;BME280;60991;51.278;22.550;2023-03-20T02:13:30;99051.41;;;9.28;52.28
72855;BME280;60991;51.278;22.550;2023-03-20T02:15:02;99052.22;;;9.29;52.31
72855;BME280;60991;51.278;22.550;2023-03-20T02:16:33;99055.13;;;9.27;52.71
72855;BME280;60991;51.278;22.550;2023-03-20T02:18:03;99060.41;;;9.27;52.74
72855;BME280;60991;51.278;22.550;2023-03-20T02:19:54;99057.44;;;9.24;52.75
72855;BME280;60991;51.278;22.550;2023-03-20T02:21:42;99058.25;;;9.24;52.54
72855;BME280;60991;51.278;22.550;2023-03-20T02:41:00;99049.28;;;8.85;53.64
72855;BME280;60991;51.278;22.550;2023-03-20T02:42:49;99054.78;;;8.84;53.86
72855;BME280;60991;51.278;22.550;2023-03-20T02:46:54;99039.50;;;8.86;54.05
72855;BME280;60991;51.278;22.550;2023-03-20T02:49:01;99038.13;;;8.83;53.65
72855;BME280;60991;51.278;22.550;2023-03-20T02:53:10;99045.25;;;8.83;53.95
72855;BME280;60991;51.278;22.550;2023-03-20T02:58:49;99047.56;;;8.79;54.33
72855;BME280;60991;51.278;22.550;2023-03-20T03:00:31;99049.16;;;8.80;53.70
72855;BME280;60991;51.278;22.550;2023-03-20T03:02:07;99046.97;;;8.77;54.07
72855;BME280;60991;51.278;22.550;2023-03-20T03:03:45;99047.22;;;8.76;53.85
72855;BME280;60991;51.278;22.550;2023-03-20T03:05:22;99044.22;;;8.72;53.96
72855;BME280;60991;51.278;22.550;2023-03-20T03:06:55;99044.13;;;8.67;54.08
72855;BME280;60991;51.278;22.550;2023-03-20T03:08:31;99040.56;;;8.61;54.48
72855;BME280;60991;51.278;22.550;2023-03-20T03:10:07;99040.00;;;8.59;54.54
72855;BME280;60991;51.278;22.550;2023-03-20T03:11:44;99035.75;;;8.58;54.49
72855;BME280;60991;51.278;22.550;2023-03-20T03:13:20;99035.50;;;8.60;54.59
72855;BME280;60991;51.278;22.550;2023-03-20T03:14:56;99037.94;;;8.61;54.89
72855;BME280;60991;51.278;22.550;2023-03-20T03:16:32;99038.50;;;8.63;54.49
72855;BME280;60991;51.278;22.550;2023-03-20T03:18:05;99037.47;;;8.64;54.98
72855;BME280;60991;51.278;22.550;2023-03-20T03:19:40;99034.81;;;8.64;54.38
72855;BME280;60991;51.278;22.550;2023-03-20T03:21:15;99031.13;;;8.65;54.16
72855;BME280;60991;51.278;22.550;2023-03-20T03:22:46;99027.44;;;8.66;54.78
72855;BME280;60991;51.278;22.550;2023-03-20T03:24:31;99022.38;;;8.65;54.73
72855;BME280;60991;51.278;22.550;2023-03-20T03:26:04;99026.41;;;8.67;54.42
72855;BME280;60991;51.278;22.550;2023-03-20T03:27:40;99021.94;;;8.68;54.87
72855;BME280;60991;51.278;22.550;2023-03-20T03:29:15;99029.63;;;8.70;54.49
72855;BME280;60991;51.278;22.550;2023-03-20T03:30:46;99032.28;;;8.70;54.58
72855;BME280;60991;51.278;22.550;2023-03-20T03:32:23;99025.38;;;8.68;54.27
72855;BME280;60991;51.278;22.550;2023-03-20T03:33:56;99029.88;;;8.68;54.42
72855;BME280;60991;51.278;22.550;2023-03-20T03:35:27;99025.28;;;8.63;54.92
72855;BME280;60991;51.278;22.550;2023-03-20T03:43:05;99022.53;;;8.47;54.79
72855;BME280;60991;51.278;22.550;2023-03-20T03:44:59;99022.78;;;8.45;55.58
72855;BME280;60991;51.278;22.550;2023-03-20T03:46:41;99028.88;;;8.46;55.08
72855;BME280;60991;51.278;22.550;2023-03-20T03:48:21;99030.13;;;8.43;55.11
72855;BME280;60991;51.278;22.550;2023-03-20T03:49:59;99027.13;;;8.40;55.08
72855;BME280;60991;51.278;22.550;2023-03-20T03:51:34;99024.16;;;8.36;55.62
72855;BME280;60991;51.278;22.550;2023-03-20T03:53:11;99029.69;;;8.35;55.48
72855;BME280;60991;51.278;22.550;2023-03-20T03:56:25;99022.88;;;8.27;55.76
72855;BME280;60991;51.278;22.550;2023-03-20T03:58:03;99028.50;;;8.19;55.60
72855;BME280;60991;51.278;22.550;2023-03-20T03:59:41;99025.41;;;8.10;56.04
72855;BME280;60991;51.278;22.550;2023-03-20T04:01:15;99037.25;;;8.08;56.14
72855;BME280;60991;51.278;22.550;2023-03-20T04:02:49;99030.56;;;8.05;56.39
72855;BME280;60991;51.278;22.550;2023-03-20T04:04:21;99028.72;;;8.06;56.51
72855;BME280;60991;51.278;22.550;2023-03-20T04:05:52;99026.53;;;8.03;56.17
72855;BME280;60991;51.278;22.550;2023-03-20T04:07:27;99034.69;;;8.01;56.54
72855;BME280;60991;51.278;22.550;2023-03-20T04:08:57;99030.34;;;7.95;56.62
72855;BME280;60991;51.278;22.550;2023-03-20T04:10:27;99029.88;;;7.98;56.57
72855;BME280;60991;51.278;22.550;2023-03-20T04:11:58;99035.06;;;7.93;56.68
72855;BME280;60991;51.278;22.550;2023-03-20T04:13:28;99033.66;;;7.90;57.00
72855;BME280;60991;51.278;22.550;2023-03-20T04:14:58;99030.56;;;7.93;56.84
72855;BME280;60991;51.278;22.550;2023-03-20T04:16:28;99035.88;;;7.93;57.18
72855;BME280;60991;51.278;22.550;2023-03-20T04:17:58;99042.19;;;7.92;56.85
72855;BME280;60991;51.278;22.550;2023-03-20T04:19:29;99032.63;;;7.91;57.16
72855;BME280;60991;51.278;22.550;2023-03-20T04:20:59;99030.00;;;7.91;57.16
72855;BME280;60991;51.278;22.550;2023-03-20T04:22:29;99030.22;;;7.90;57.36
72855;BME280;60991;51.278;22.550;2023-03-20T04:23:59;99027.59;;;7.90;56.75
72855;BME280;60991;51.278;22.550;2023-03-20T04:25:30;99026.56;;;7.91;57.19
72855;BME280;60991;51.278;22.550;2023-03-20T04:27:00;99036.09;;;7.92;56.84
72855;BME280;60991;51.278;22.550;2023-03-20T04:28:30;99024.72;;;7.91;56.39
72855;BME280;60991;51.278;22.550;2023-03-20T04:30:00;99029.19;;;7.91;56.85
72855;BME280;60991;51.278;22.550;2023-03-20T04:31:30;99027.81;;;7.88;56.78
72855;BME280;60991;51.278;22.550;2023-03-20T04:33:01;99033.09;;;7.88;57.27
72855;BME280;60991;51.278;22.550;2023-03-20T04:34:31;99030.69;;;7.87;57.09
72855;BME280;60991;51.278;22.550;2023-03-20T04:36:01;99030.91;;;7.85;57.94
72855;BME280;60991;51.278;22.550;2023-03-20T04:37:31;99029.88;;;7.86;57.23
72855;BME280;60991;51.278;22.550;2023-03-20T04:39:02;99033.53;;;7.85;56.93
72855;BME280;60991;51.278;22.550;2023-03-20T04:40:33;99040.66;;;7.85;57.53
72855;BME280;60991;51.278;22.550;2023-03-20T04:42:04;99043.53;;;7.83;57.47
72855;BME280;60991;51.278;22.550;2023-03-20T04:43:35;99041.34;;;7.80;57.25
72855;BME280;60991;51.278;22.550;2023-03-20T04:45:05;99036.06;;;7.80;57.36
72855;BME280;60991;51.278;22.550;2023-03-20T04:46:36;99045.38;;;7.83;57.75
72855;BME280;60991;51.278;22.550;2023-03-20T04:48:07;99037.44;;;7.83;57.63
72855;BME280;60991;51.278;22.550;2023-03-20T04:49:37;99037.44;;;7.83;57.16
72855;BME280;60991;51.278;22.550;2023-03-20T04:51:07;99039.50;;;7.81;57.09
72855;BME280;60991;51.278;22.550;2023-03-20T04:52:37;99038.69;;;7.80;58.14
72855;BME280;60991;51.278;22.550;2023-03-20T04:54:07;99037.66;;;7.81;56.85
72855;BME280;60991;51.278;22.550;2023-03-20T04:55:38;99043.53;;;7.83;57.48
72855;BME280;60991;51.278;22.550;2023-03-20T04:57:08;99041.47;;;7.85;57.04
72855;BME280;60991;51.278;22.550;2023-03-20T04:58:38;99036.53;;;7.89;57.48
72855;BME280;60991;51.278;22.550;2023-03-20T05:00:10;99040.56;;;7.91;56.82
72855;BME280;60991;51.278;22.550;2023-03-20T05:01:41;99041.50;;;7.97;56.34
72855;BME280;60991;51.278;22.550;2023-03-20T05:03:11;99038.97;;;8.02;56.54
72855;BME280;60991;51.278;22.550;2023-03-20T05:04:41;99039.75;;;8.03;56.59
72855;BME280;60991;51.278;22.550;2023-03-20T05:06:11;99050.69;;;8.06;57.11
72855;BME280;60991;51.278;22.550;2023-03-20T05:07:42;99044.94;;;8.09;56.41
72855;BME280;60991;51.278;22.550;2023-03-20T05:09:12;99048.16;;;8.11;56.33
72855;BME280;60991;51.278;22.550;2023-03-20T05:10:42;99046.34;;;8.12;56.21
72855;BME280;60991;51.278;22.550;2023-03-20T05:12:12;99047.13;;;8.12;56.61
72855;BME280;60991;51.278;22.550;2023-03-20T05:13:43;99050.00;;;8.11;56.00
72855;BME280;60991;51.278;22.550;2023-03-20T05:15:13;99050.81;;;8.11;56.55
72855;BME280;60991;51.278;22.550;2023-03-20T05:16:43;99051.25;;;8.08;56.37
72855;BME280;60991;51.278;22.550;2023-03-20T05:18:13;99051.50;;;8.07;56.58
72855;BME280;60991;51.278;22.550;2023-03-20T05:19:44;99046.44;;;8.05;56.35
72855;BME280;60991;51.278;22.550;2023-03-20T05:21:14;99049.31;;;8.04;56.33
72855;BME280;60991;51.278;22.550;2023-03-20T05:22:47;99042.75;;;7.94;56.61
72855;BME280;60991;51.278;22.550;2023-03-20T05:24:18;99049.06;;;7.93;56.70
72855;BME280;60991;51.278;22.550;2023-03-20T05:25:48;99044.03;;;7.92;56.86
72855;BME280;60991;51.278;22.550;2023-03-20T05:27:18;99039.75;;;7.91;56.97
72855;BME280;60991;51.278;22.550;2023-03-20T05:28:49;99039.84;;;7.84;57.42
72855;BME280;60991;51.278;22.550;2023-03-20T05:30:19;99044.34;;;7.84;57.39
72855;BME280;60991;51.278;22.550;2023-03-20T05:31:49;99041.91;;;7.82;57.15
72855;BME280;60991;51.278;22.550;2023-03-20T05:33:19;99040.22;;;7.88;56.73
72855;BME280;60991;51.278;22.550;2023-03-20T05:34:50;99044.81;;;7.92;56.68
72855;BME280;60991;51.278;22.550;2023-03-20T05:36:20;99040.34;;;7.93;57.08
72855;BME280;60991;51.278;22.550;2023-03-20T05:37:50;99040.69;;;7.96;56.45
72855;BME280;60991;51.278;22.550;2023-03-20T05:39:21;99041.03;;;8.00;56.75
72855;BME280;60991;51.278;22.550;2023-03-20T05:41:00;99047.69;;;8.03;56.44
72855;BME280;60991;51.278;22.550;2023-03-20T05:42:30;99047.81;;;8.08;56.50
72855;BME280;60991;51.278;22.550;2023-03-20T05:44:00;99046.78;;;8.09;56.04
72855;BME280;60991;51.278;22.550;2023-03-20T05:45:31;99048.97;;;8.12;55.88
72855;BME280;60991;51.278;22.550;2023-03-20T05:47:01;99043.22;;;8.15;55.59
72855;BME280;60991;51.278;22.550;2023-03-20T05:48:31;99044.59;;;8.17;55.84
72855;BME280;60991;51.278;22.550;2023-03-20T05:50:02;99044.13;;;8.20;55.57
72855;BME280;60991;51.278;22.550;2023-03-20T05:51:33;99043.69;;;8.23;55.50
72855;BME280;60991;51.278;22.550;2023-03-20T05:53:03;99045.88;;;8.26;55.57
72855;BME280;60991;51.278;22.550;2023-03-20T05:54:33;99044.97;;;8.32;55.22
72855;BME280;60991;51.278;22.550;2023-03-20T05:56:04;99040.59;;;8.38;55.43
72855;BME280;60991;51.278;22.550;2023-03-20T05:57:34;99046.56;;;8.45;54.85
72855;BME280;60991;51.278;22.550;2023-03-20T05:59:04;99041.41;;;8.50;54.89
72855;BME280;60991;51.278;22.550;2023-03-20T06:00:34;99046.56;;;8.57;54.76
72855;BME280;60991;51.278;22.550;2023-03-20T06:02:05;99042.97;;;8.63;54.54
72855;BME280;60991;51.278;22.550;2023-03-20T06:03:35;99046.56;;;8.68;54.59
72855;BME280;60991;51.278;22.550;2023-03-20T06:05:05;99041.34;;;8.74;54.41
72855;BME280;60991;51.278;22.550;2023-03-20T06:06:35;99043.28;;;8.78;54.09
72855;BME280;60991;51.278;22.550;2023-03-20T06:08:06;99045.81;;;8.85;54.08
72855;BME280;60991;51.278;22.550;2023-03-20T06:09:36;99048.81;;;8.88;54.05
72855;BME280;60991;51.278;22.550;2023-03-20T06:11:07;99043.28;;;8.90;53.66
72855;BME280;60991;51.278;22.550;2023-03-20T06:12:37;99045.19;;;8.94;53.81
72855;BME280;60991;51.278;22.550;2023-03-20T06:14:07;99041.75;;;8.94;54.12
72855;BME280;60991;51.278;22.550;2023-03-20T06:15:38;99043.22;;;9.01;54.14
72855;BME280;60991;51.278;22.550;2023-03-20T06:17:08;99042.06;;;9.09;54.00
72855;BME280;60991;51.278;22.550;2023-03-20T06:18:38;99045.84;;;9.13;54.13
72855;BME280;60991;51.278;22.550;2023-03-20T06:20:09;99040.19;;;9.10;54.63
72855;BME280;60991;51.278;22.550;2023-03-20T06:21:39;99041.97;;;9.04;54.79
72855;BME280;60991;51.278;22.550;2023-03-20T06:23:09;99046.56;;;9.09;54.35
72855;BME280;60991;51.278;22.550;2023-03-20T06:24:39;99051.34;;;9.12;54.25
72855;BME280;60991;51.278;22.550;2023-03-20T06:26:10;99044.09;;;9.19;54.78
72855;BME280;60991;51.278;22.550;2023-03-20T06:27:40;99047.66;;;9.24;54.82
72855;BME280;60991;51.278;22.550;2023-03-20T06:29:10;99041.63;;;9.29;53.97
72855;BME280;60991;51.278;22.550;2023-03-20T06:30:40;99052.06;;;9.35;54.18
72855;BME280;60991;51.278;22.550;2023-03-20T06:32:11;99058.19;;;9.36;54.06
72855;BME280;60991;51.278;22.550;2023-03-20T06:33:41;99054.34;;;9.44;54.21
72855;BME280;60991;51.278;22.550;2023-03-20T06:35:11;99049.69;;;9.51;54.47
72855;BME280;60991;51.278;22.550;2023-03-20T06:36:41;99059.72;;;9.49;54.36
72855;BME280;60991;51.278;22.550;2023-03-20T06:38:12;99052.81;;;9.48;54.19
72855;BME280;60991;51.278;22.550;2023-03-20T06:39:42;99056.03;;;9.50;53.77
72855;BME280;60991;51.278;22.550;2023-03-20T06:41:12;99050.72;;;9.50;54.23
72855;BME280;60991;51.278;22.550;2023-03-20T06:42:42;99055.56;;;9.53;54.71
72855;BME280;60991;51.278;22.550;2023-03-20T06:44:12;99052.09;;;9.52;54.27
72855;BME280;60991;51.278;22.550;2023-03-20T06:45:43;99054.13;;;9.45;54.29
72855;BME280;60991;51.278;22.550;2023-03-20T06:47:13;99048.66;;;9.52;54.47
72855;BME280;60991;51.278;22.550;2023-03-20T06:48:43;99046.47;;;9.49;54.58
72855;BME280;60991;51.278;22.550;2023-03-20T06:50:14;99050.38;;;9.58;53.93
72855;BME280;60991;51.278;22.550;2023-03-20T06:51:44;99049.16;;;9.65;54.07
72855;BME280;60991;51.278;22.550;2023-03-20T06:53:14;99051.97;;;9.76;53.95
72855;BME280;60991;51.278;22.550;2023-03-20T06:54:44;99048.06;;;9.78;54.46
72855;BME280;60991;51.278;22.550;2023-03-20T06:56:15;99039.69;;;9.86;54.67
72855;BME280;60991;51.278;22.550;2023-03-20T06:57:45;99050.63;;;9.90;54.78
72855;BME280;60991;51.278;22.550;2023-03-20T06:59:15;99053.44;;;10.00;54.30
72855;BME280;60991;51.278;22.550;2023-03-20T07:00:45;99051.09;;;10.03;54.38
72855;BME280;60991;51.278;22.550;2023-03-20T07:02:16;99053.13;;;10.13;54.11
72855;BME280;60991;51.278;22.550;2023-03-20T07:03:46;99057.31;;;10.26;53.80
72855;BME280;60991;51.278;22.550;2023-03-20T07:05:16;99056.81;;;10.29;53.39
72855;BME280;60991;51.278;22.550;2023-03-20T07:06:47;99055.06;;;10.34;52.57
72855;BME280;60991;51.278;22.550;2023-03-20T07:08:17;99050.34;;;10.41;52.95
72855;BME280;60991;51.278;22.550;2023-03-20T07:09:47;99051.47;;;10.46;52.86
72855;BME280;60991;51.278;22.550;2023-03-20T07:11:17;99054.38;;;10.44;53.09
72855;BME280;60991;51.278;22.550;2023-03-20T07:12:48;99053.56;;;10.44;53.21
72855;BME280;60991;51.278;22.550;2023-03-20T07:14:18;99048.84;;;10.46;53.38
72855;BME280;60991;51.278;22.550;2023-03-20T07:15:48;99050.69;;;10.45;53.53
72855;BME280;60991;51.278;22.550;2023-03-20T07:17:18;99055.03;;;10.51;53.51
72855;BME280;60991;51.278;22.550;2023-03-20T07:18:48;99044.81;;;10.43;53.05
72855;BME280;60991;51.278;22.550;2023-03-20T07:20:19;99050.06;;;10.38;53.33
72855;BME280;60991;51.278;22.550;2023-03-20T07:21:52;99050.78;;;10.33;53.24
72855;BME280;60991;51.278;22.550;2023-03-20T07:23:24;99047.97;;;10.23;52.27
72855;BME280;60991;51.278;22.550;2023-03-20T07:24:54;99053.78;;;10.20;52.91
72855;BME280;60991;51.278;22.550;2023-03-20T07:26:25;99049.75;;;10.18;52.91
72855;BME280;60991;51.278;22.550;2023-03-20T07:27:55;99055.84;;;10.18;52.84
72855;BME280;60991;51.278;22.550;2023-03-20T07:29:25;99053.03;;;10.25;53.17
72855;BME280;60991;51.278;22.550;2023-03-20T07:30:56;99046.84;;;10.36;53.05
72855;BME280;60991;51.278;22.550;2023-03-20T07:32:26;99053.41;;;10.50;53.00
72855;BME280;60991;51.278;22.550;2023-03-20T07:33:56;99047.78;;;10.47;52.66
72855;BME280;60991;51.278;22.550;2023-03-20T07:35:27;99046.66;;;10.43;52.73
72855;BME280;60991;51.278;22.550;2023-03-20T07:36:57;99045.22;;;10.52;52.87
72855;BME280;60991;51.278;22.550;2023-03-20T07:38:27;99049.50;;;10.58;52.38
72855;BME280;60991;51.278;22.550;2023-03-20T07:39:57;99043.78;;;10.66;51.85
72855;BME280;60991;51.278;22.550;2023-03-20T07:41:28;99043.88;;;10.71;51.84
72855;BME280;60991;51.278;22.550;2023-03-20T07:42:58;99043.66;;;10.77;51.50
72855;BME280;60991;51.278;22.550;2023-03-20T07:44:28;99040.53;;;10.81;51.43
72855;BME280;60991;51.278;22.550;2023-03-20T07:46:03;99045.97;;;10.91;51.17
72855;BME280;60991;51.278;22.550;2023-03-20T07:47:33;99040.69;;;10.96;50.70
72855;BME280;60991;51.278;22.550;2023-03-20T07:49:04;99039.47;;;11.03;50.44
72855;BME280;60991;51.278;22.550;2023-03-20T07:50:34;99035.28;;;11.07;50.07
72855;BME280;60991;51.278;22.550;2023-03-20T07:52:04;99039.88;;;11.17;50.04
72855;BME280;60991;51.278;22.550;2023-03-20T07:53:35;99037.34;;;11.27;49.94
72855;BME280;60991;51.278;22.550;2023-03-20T07:55:05;99027.56;;;11.33;49.39
72855;BME280;60991;51.278;22.550;2023-03-20T07:56:36;99033.97;;;11.37;49.45
72855;BME280;60991;51.278;22.550;2023-03-20T07:58:06;99032.72;;;11.44;49.18
72855;BME280;60991;51.278;22.550;2023-03-20T07:59:36;99032.50;;;11.51;48.88
72855;BME280;60991;51.278;22.550;2023-03-20T08:01:06;99035.97;;;11.52;48.38
72855;BME280;60991;51.278;22.550;2023-03-20T08:02:37;99032.88;;;11.60;48.59
72855;BME280;60991;51.278;22.550;2023-03-20T08:04:07;99036.63;;;11.64;48.24
72855;BME280;60991;51.278;22.550;2023-03-20T08:05:37;99038.00;;;11.66;48.70
72855;BME280;60991;51.278;22.550;2023-03-20T08:07:07;99034.78;;;11.69;48.31
72855;BME280;60991;51.278;22.550;2023-03-20T08:08:38;99036.44;;;11.75;48.35
72855;BME280;60991;51.278;22.550;2023-03-20T08:10:08;99032.28;;;11.79;47.55
72855;BME280;60991;51.278;22.550;2023-03-20T08:11:39;99040.31;;;11.85;47.31
72855;BME280;60991;51.278;22.550;2023-03-20T08:13:09;99042.44;;;11.88;47.56
72855;BME280;60991;51.278;22.550;2023-03-20T08:14:39;99044.34;;;11.92;47.46
72855;BME280;60991;51.278;22.550;2023-03-20T08:16:09;99048.34;;;11.95;47.62
72855;BME280;60991;51.278;22.550;2023-03-20T08:17:43;99035.66;;;12.02;47.29
72855;BME280;60991;51.278;22.550;2023-03-20T08:19:14;99040.97;;;12.02;46.77
72855;BME280;60991;51.278;22.550;2023-03-20T08:20:44;99045.22;;;12.03;46.95
72855;BME280;60991;51.278;22.550;2023-03-20T08:22:14;99036.19;;;12.04;46.34
72855;BME280;60991;51.278;22.550;2023-03-20T08:23:45;99041.53;;;12.09;46.50
72855;BME280;60991;51.278;22.550;2023-03-20T08:25:15;99036.22;;;12.09;46.52
72855;BME280;60991;51.278;22.550;2023-03-20T08:26:46;99039.13;;;12.07;46.11
72855;BME280;60991;51.278;22.550;2023-03-20T08:28:16;99043.38;;;12.08;46.35
72855;BME280;60991;51.278;22.550;2023-03-20T08:29:46;99040.22;;;12.11;45.94
72855;BME280;60991;51.278;22.550;2023-03-20T08:31:17;99043.44;;;12.13;45.89
72855;BME280;60991;51.278;22.550;2023-03-20T08:32:47;99045.84;;;12.15;46.04
72855;BME280;60991;51.278;22.550;2023-03-20T08:34:17;99043.47;;;12.19;46.11
72855;BME280;60991;51.278;22.550;2023-03-20T08:35:57;99046.13;;;12.19;46.22
72855;BME280;60991;51.278;22.550;2023-03-20T08:37:27;99044.03;;;12.26;46.39
72855;BME280;60991;51.278;22.550;2023-03-20T08:38:58;99044.06;;;12.31;46.03
72855;BME280;60991;51.278;22.550;2023-03-20T08:40:28;99041.41;;;12.31;45.75
72855;BME280;60991;51.278;22.550;2023-03-20T08:41:58;99048.31;;;12.27;45.27
72855;BME280;60991;51.278;22.550;2023-03-20T08:43:28;99052.00;;;12.26;45.26
72855;BME280;60991;51.278;22.550;2023-03-20T08:44:59;99051.97;;;12.16;45.20
72855;BME280;60991;51.278;22.550;2023-03-20T08:46:29;99053.34;;;12.23;45.35
72855;BME280;60991;51.278;22.550;2023-03-20T08:47:59;99055.72;;;12.25;44.98